createdAt,value
2018-11-12T00:03:24.919Z,11.26
2018-11-12T00:08:17.561Z,11.26
2018-11-12T00:13:10.209Z,11.29
2018-11-12T00:18:02.831Z,11.31
2018-11-12T00:22:55.430Z,11.32
2018-11-12T00:27:48.082Z,11.32
2018-11-12T00:32:41.250Z,11.33
2018-11-12T00:37:33.837Z,11.30
2018-11-12T00:42:26.445Z,11.30
2018-11-12T00:47:19.017Z,11.32
2018-11-12T00:52:11.599Z,11.31
2018-11-12T00:57:04.371Z,11.30
2018-11-12T01:01:57.317Z,11.28
2018-11-12T01:06:50.079Z,11.29
2018-11-12T01:11:42.706Z,11.30
2018-11-12T01:16:35.409Z,11.31
2018-11-12T01:21:27.991Z,11.31
2018-11-12T01:26:20.569Z,11.32
2018-11-12T01:31:13.166Z,11.31
2018-11-12T01:36:06.693Z,11.31
2018-11-12T01:40:59.321Z,11.30
2018-11-12T01:45:51.934Z,11.30
2018-11-12T01:50:44.617Z,11.30
2018-11-12T01:55:37.256Z,11.29
2018-11-12T02:00:29.942Z,11.31
2018-11-12T02:05:22.545Z,11.30
2018-11-12T02:10:16.369Z,11.30
2018-11-12T02:15:14.658Z,11.29
2018-11-12T02:20:09.770Z,11.28
2018-11-12T02:25:02.399Z,11.29
2018-11-12T02:29:54.970Z,11.28
2018-11-12T02:34:47.557Z,11.28
2018-11-12T02:39:40.144Z,11.28
2018-11-12T02:44:32.786Z,11.29
2018-11-12T02:49:25.446Z,11.29
2018-11-12T02:54:18.149Z,11.28
2018-11-12T02:59:10.749Z,11.25
2018-11-12T03:04:03.726Z,11.25
2018-11-12T03:08:56.369Z,11.26
2018-11-12T03:13:49.020Z,11.25
2018-11-12T03:18:41.721Z,11.23
2018-11-12T03:23:34.385Z,11.22
2018-11-12T03:28:27.010Z,11.22
2018-11-12T03:33:19.648Z,11.23
2018-11-12T03:38:12.262Z,11.24
2018-11-12T03:43:05.313Z,11.23
2018-11-12T03:47:57.930Z,11.22
2018-11-12T03:52:50.534Z,11.22
2018-11-12T03:57:43.137Z,11.21
2018-11-12T04:02:35.790Z,11.18
2018-11-12T04:07:28.438Z,11.17
2018-11-12T04:12:21.079Z,11.16
2018-11-12T04:17:13.661Z,11.17
2018-11-12T04:22:06.331Z,11.17
2018-11-12T04:26:58.955Z,11.16
2018-11-12T04:31:51.556Z,11.15
2018-11-12T04:36:44.209Z,11.14
2018-11-12T04:41:36.917Z,11.14
2018-11-12T04:46:29.606Z,11.14
2018-11-12T04:51:22.231Z,11.15
2018-11-12T04:56:14.846Z,11.14
2018-11-12T05:01:07.648Z,11.14
2018-11-12T05:06:00.236Z,11.13
2018-11-12T05:10:52.833Z,11.13
2018-11-12T05:15:45.429Z,11.12
2018-11-12T05:20:38.245Z,11.13
2018-11-12T05:25:30.965Z,11.13
2018-11-12T05:30:24.737Z,11.12
2018-11-12T05:35:19.674Z,11.11
2018-11-12T05:40:15.132Z,11.08
2018-11-12T05:45:07.773Z,11.05
2018-11-12T05:50:00.411Z,11.04
2018-11-12T05:54:53.129Z,11.06
2018-11-12T05:59:46.278Z,11.06
2018-11-12T06:04:38.915Z,11.06
2018-11-12T06:09:31.656Z,11.07
2018-11-12T06:14:24.280Z,11.09
2018-11-12T06:19:17.128Z,11.08
2018-11-12T06:24:09.975Z,11.10
2018-11-12T06:29:02.727Z,11.09
2018-11-12T06:33:55.615Z,11.10
2018-11-12T06:38:48.358Z,11.10
2018-11-12T06:43:41.108Z,11.10
2018-11-12T06:48:33.865Z,11.11
2018-11-12T06:53:26.790Z,11.13
2018-11-12T06:58:19.486Z,11.15
2018-11-12T07:03:12.271Z,11.18
2018-11-12T07:08:05.193Z,11.20
2018-11-12T07:12:58.568Z,11.23
2018-11-12T07:17:57.378Z,11.27
2018-11-12T07:23:05.229Z,11.29
2018-11-12T07:27:58.157Z,11.30
2018-11-12T07:32:51.724Z,11.35
2018-11-12T07:37:45.488Z,11.41
2018-11-12T07:42:38.785Z,11.41
2018-11-12T07:47:31.460Z,11.42
2018-11-12T07:52:24.069Z,11.46
2018-11-12T07:57:16.715Z,11.48
2018-11-12T08:02:09.385Z,11.50
2018-11-12T08:07:02.029Z,11.54
2018-11-12T08:11:54.741Z,11.58
2018-11-12T08:16:47.406Z,11.59
2018-11-12T08:21:40.091Z,11.60
2018-11-12T08:26:32.674Z,11.62
2018-11-12T08:31:25.328Z,11.63
2018-11-12T08:36:18.092Z,11.66
2018-11-12T08:41:11.216Z,11.69
2018-11-12T08:46:04.244Z,11.69
2018-11-12T08:50:58.158Z,11.71
2018-11-12T08:55:50.862Z,11.69
2018-11-12T09:00:43.471Z,11.71
2018-11-12T09:05:36.393Z,11.69
2018-11-12T09:10:33.204Z,11.73
2018-11-12T09:15:26.090Z,11.79
2018-11-12T09:20:20.134Z,11.85
2018-11-12T09:25:14.568Z,11.92
2018-11-12T09:30:15.168Z,11.95
2018-11-12T09:35:09.496Z,12.00
2018-11-12T09:40:02.099Z,12.04
2018-11-12T09:44:54.854Z,12.10
2018-11-12T09:49:48.325Z,12.19
2018-11-12T09:54:41.026Z,12.30
2018-11-12T09:59:33.651Z,12.39
2018-11-12T10:04:27.164Z,12.46
2018-11-12T10:09:21.692Z,12.53
2018-11-12T10:14:13.750Z,12.59
2018-11-12T10:19:04.216Z,12.66
2018-11-12T10:23:56.805Z,12.70
2018-11-12T10:28:49.384Z,12.75
2018-11-12T10:33:42.152Z,12.78
2018-11-12T10:38:35.929Z,12.82
2018-11-12T10:43:28.559Z,12.84
2018-11-12T10:48:21.243Z,12.89
2018-11-12T10:53:13.862Z,12.92
2018-11-12T10:58:06.484Z,12.97
2018-11-12T11:03:07.513Z,13.00
2018-11-12T11:08:00.186Z,13.01
2018-11-12T11:12:53.144Z,13.03
2018-11-12T11:17:46.127Z,13.06
2018-11-12T11:22:39.023Z,13.06
2018-11-12T11:27:31.635Z,13.04
2018-11-12T11:32:24.228Z,13.03
2018-11-12T11:37:16.897Z,13.04
2018-11-12T11:42:09.588Z,13.05
2018-11-12T11:47:02.297Z,13.07
2018-11-12T11:51:55.043Z,13.10
2018-11-12T11:56:47.981Z,13.12
2018-11-12T12:01:40.575Z,13.14
2018-11-12T12:06:33.410Z,13.19
2018-11-12T12:11:26.082Z,13.21
2018-11-12T12:16:18.729Z,13.24
2018-11-12T12:21:11.444Z,13.30
2018-11-12T12:26:04.295Z,13.38
2018-11-12T12:30:56.938Z,13.47
2018-11-12T12:35:49.761Z,13.55
2018-11-12T12:40:42.442Z,13.59
2018-11-12T12:45:35.159Z,13.66
2018-11-12T12:50:27.680Z,13.73
2018-11-12T12:55:20.403Z,13.84
2018-11-12T13:00:16.061Z,13.92
2018-11-12T13:05:08.794Z,13.98
2018-11-12T13:10:01.540Z,14.02
2018-11-12T13:14:54.298Z,14.12
2018-11-12T13:19:46.789Z,14.18
2018-11-12T13:24:39.513Z,14.25
2018-11-12T13:29:32.214Z,14.27
2018-11-12T13:34:24.927Z,14.27
2018-11-12T13:39:17.682Z,14.29
2018-11-12T13:44:10.292Z,14.31
2018-11-12T13:49:03.376Z,14.32
2018-11-12T13:53:56.237Z,14.35
2018-11-12T13:58:48.894Z,14.38
2018-11-12T14:03:41.725Z,14.38
2018-11-12T14:08:34.545Z,14.41
2018-11-12T14:13:27.169Z,14.42
2018-11-12T14:18:19.940Z,14.41
2018-11-12T14:23:12.695Z,14.44
2018-11-12T14:28:05.675Z,14.45
2018-11-12T14:32:58.538Z,14.44
2018-11-12T14:37:51.175Z,14.43
2018-11-12T14:42:44.178Z,14.44
2018-11-12T14:47:36.828Z,14.46
2018-11-12T14:52:29.499Z,14.46
2018-11-12T14:57:22.352Z,14.47
2018-11-12T15:02:15.149Z,14.46
2018-11-12T15:07:07.805Z,14.47
2018-11-12T15:12:00.390Z,14.46
2018-11-12T15:16:53.226Z,14.46
2018-11-12T15:21:45.843Z,14.45
2018-11-12T15:26:38.517Z,14.43
2018-11-12T15:31:31.129Z,14.41
2018-11-12T15:36:23.767Z,14.41
2018-11-12T15:41:16.495Z,14.39
2018-11-12T15:46:09.145Z,14.40
2018-11-12T15:51:01.926Z,14.39
2018-11-12T15:55:54.829Z,14.39
2018-11-12T16:00:47.412Z,14.38
2018-11-12T16:05:40.386Z,14.38
2018-11-12T16:10:33.024Z,14.39
2018-11-12T16:15:25.698Z,14.39
2018-11-12T16:20:24.657Z,14.39
2018-11-12T16:25:17.850Z,14.39
2018-11-12T16:30:11.454Z,14.38
2018-11-12T16:35:05.819Z,14.36
2018-11-12T16:39:58.473Z,14.35
2018-11-12T16:44:51.293Z,14.35
2018-11-12T16:49:43.893Z,14.35
2018-11-12T16:54:36.585Z,14.32
2018-11-12T16:59:29.172Z,14.31
2018-11-12T17:04:21.781Z,14.29
2018-11-12T17:09:14.317Z,14.26
2018-11-12T17:14:07.537Z,14.24
2018-11-12T17:19:00.077Z,14.22
2018-11-12T17:23:52.666Z,14.20
2018-11-12T17:28:45.356Z,14.15
2018-11-12T17:33:37.998Z,14.12
2018-11-12T17:38:30.621Z,14.08
2018-11-12T17:43:23.299Z,14.05
2018-11-12T17:48:15.841Z,14.02
2018-11-12T17:53:08.485Z,13.98
2018-11-12T17:58:01.127Z,13.94
2018-11-12T18:02:53.745Z,13.90
2018-11-12T18:07:46.688Z,13.87
2018-11-12T18:12:39.292Z,13.83
2018-11-12T18:17:31.893Z,13.80
2018-11-12T18:22:24.477Z,13.77
2018-11-12T18:27:17.153Z,13.73
2018-11-12T18:32:09.957Z,13.70
2018-11-12T18:37:02.758Z,13.68
2018-11-12T18:41:55.393Z,13.65
2018-11-12T18:46:48.082Z,13.61
2018-11-12T18:51:40.795Z,13.57
2018-11-12T18:56:33.523Z,13.55
2018-11-12T19:01:26.333Z,13.51
2018-11-12T19:06:18.991Z,13.49
2018-11-12T19:11:11.733Z,13.43
2018-11-12T19:16:05.156Z,13.43
2018-11-12T19:20:57.769Z,13.38
2018-11-12T19:25:50.411Z,13.34
2018-11-12T19:30:43.055Z,13.32
2018-11-12T19:35:35.672Z,13.30
2018-11-12T19:40:29.450Z,13.26
2018-11-12T19:45:22.106Z,13.26
2018-11-12T19:50:16.087Z,13.23
2018-11-12T19:55:08.895Z,13.22
2018-11-12T20:00:02.254Z,13.20
2018-11-12T20:04:54.948Z,13.17
2018-11-12T20:14:39.852Z,13.13
2018-11-12T20:19:32.509Z,13.12
2018-11-12T20:24:25.289Z,13.10
2018-11-12T20:29:17.950Z,13.09
2018-11-12T20:34:10.725Z,13.08
2018-11-12T20:39:05.373Z,13.06
2018-11-12T20:43:58.295Z,13.02
2018-11-12T20:48:50.962Z,12.98
2018-11-12T20:53:43.600Z,12.95
2018-11-12T20:58:36.395Z,12.93
2018-11-12T21:03:29.081Z,12.90
2018-11-12T21:08:21.782Z,12.88
2018-11-12T21:13:14.437Z,12.86
2018-11-12T21:18:07.065Z,12.85
2018-11-12T21:22:59.674Z,12.85
2018-11-12T21:27:52.328Z,12.86
2018-11-12T21:32:45.242Z,12.86
2018-11-12T21:37:37.934Z,12.86
2018-11-12T21:42:30.606Z,12.87
2018-11-12T21:47:23.193Z,12.86
2018-11-12T21:52:15.814Z,12.87
2018-11-12T21:57:08.474Z,12.88
2018-11-12T22:02:01.108Z,12.86
2018-11-12T22:06:53.725Z,12.86
2018-11-12T22:11:46.474Z,12.87
2018-11-12T22:16:39.128Z,12.87
2018-11-12T22:21:31.789Z,12.88
2018-11-12T22:26:24.405Z,12.89
2018-11-12T22:31:16.976Z,12.92
2018-11-12T22:36:09.581Z,12.93
2018-11-12T22:41:02.222Z,12.97
2018-11-12T22:45:54.934Z,12.98
2018-11-12T22:50:47.483Z,13.00
2018-11-12T22:55:40.102Z,12.99
2018-11-12T23:00:38.785Z,13.00
2018-11-12T23:05:31.449Z,12.99
2018-11-12T23:10:24.041Z,12.97
2018-11-12T23:15:17.278Z,12.99
2018-11-12T23:20:13.629Z,13.00
2018-11-12T23:25:06.866Z,13.01
2018-11-12T23:29:59.525Z,13.00
2018-11-12T23:34:52.129Z,13.00
2018-11-12T23:39:44.763Z,13.01
2018-11-12T23:44:37.369Z,13.01
2018-11-12T23:49:29.973Z,13.01
2018-11-12T23:54:22.568Z,13.00
2018-11-12T23:59:15.180Z,12.98
